Terminal Aerodrome Forecast
Issued by NWS

Home | Current Version | Previous Version | Graphics & Text | Print | Product List | Glossary On
Versions: 1 2 3 4 5 6 7 8 9 10 11 12 13 14 15 16 17 18 19 20
000
FTUS43 KMPX 301735
TAFRNH
TAF
KRNH 301735Z 3018/3118 20006KT P6SM SKC
     FM310000 16006KT P6SM VCSH BKN110
     FM310600 13008KT P6SM VCSH BKN050
      TEMPO 3107/3109 4SM TSRA OVC045CB
     FM310900 13008KT P6SM -SHRA VCTS SCT025CB OVC045
     FM311300 16010KT P6SM VCSH OVC040=

USA.gov is the U.S. government's official web portal to all federal, state and local government web resources and services.